sensor_id;sensor_type;location;lat;lon;timestamp;P1;durP1;ratioP1;P2;durP2;ratioP2
49834;SDS011;35729;52.090;13.162;2022-09-09T00:00:34;7.20;;;5.72;;
49834;SDS011;35729;52.090;13.162;2022-09-09T00:03:08;8.05;;;6.18;;
49834;SDS011;35729;52.090;13.162;2022-09-09T00:05:44;9.63;;;6.50;;
49834;SDS011;35729;52.090;13.162;2022-09-09T00:08:19;8.23;;;6.38;;
49834;SDS011;35729;52.090;13.162;2022-09-09T00:10:50;9.13;;;6.70;;
49834;SDS011;35729;52.090;13.162;2022-09-09T00:13:34;8.07;;;6.25;;
49834;SDS011;35729;52.090;13.162;2022-09-09T00:16:14;7.40;;;6.63;;
49834;SDS011;35729;52.090;13.162;2022-09-09T00:18:54;10.52;;;6.68;;
49834;SDS011;35729;52.090;13.162;2022-09-09T00:21:30;9.65;;;6.50;;
49834;SDS011;35729;52.090;13.162;2022-09-09T00:24:04;7.82;;;5.85;;
49834;SDS011;35729;52.090;13.162;2022-09-09T00:26:40;7.68;;;6.63;;
49834;SDS011;35729;52.090;13.162;2022-09-09T00:29:14;6.70;;;6.03;;
49834;SDS011;35729;52.090;13.162;2022-09-09T00:31:54;7.65;;;5.88;;
49834;SDS011;35729;52.090;13.162;2022-09-09T00:34:28;9.05;;;6.82;;
49834;SDS011;35729;52.090;13.162;2022-09-09T00:36:58;11.00;;;6.28;;
49834;SDS011;35729;52.090;13.162;2022-09-09T00:39:29;7.30;;;6.43;;
49834;SDS011;35729;52.090;13.162;2022-09-09T00:42:05;7.90;;;7.10;;
49834;SDS011;35729;52.090;13.162;2022-09-09T00:44:48;8.07;;;6.80;;
49834;SDS011;35729;52.090;13.162;2022-09-09T00:50:27;9.07;;;7.50;;
49834;SDS011;35729;52.090;13.162;2022-09-09T00:53:19;8.70;;;6.55;;
49834;SDS011;35729;52.090;13.162;2022-09-09T00:55:58;8.48;;;7.40;;
49834;SDS011;35729;52.090;13.162;2022-09-09T00:58:37;8.98;;;6.50;;
49834;SDS011;35729;52.090;13.162;2022-09-09T01:01:07;10.15;;;8.23;;
49834;SDS011;35729;52.090;13.162;2022-09-09T01:03:42;8.02;;;7.30;;
49834;SDS011;35729;52.090;13.162;2022-09-09T01:06:20;8.43;;;6.63;;
49834;SDS011;35729;52.090;13.162;2022-09-09T01:09:00;8.35;;;6.10;;
49834;SDS011;35729;52.090;13.162;2022-09-09T01:11:37;8.90;;;7.05;;
49834;SDS011;35729;52.090;13.162;2022-09-09T01:14:22;7.55;;;6.85;;
49834;SDS011;35729;52.090;13.162;2022-09-09T01:17:01;8.30;;;5.97;;
49834;SDS011;35729;52.090;13.162;2022-09-09T01:19:39;9.30;;;6.13;;
49834;SDS011;35729;52.090;13.162;2022-09-09T01:22:26;7.78;;;6.53;;
49834;SDS011;35729;52.090;13.162;2022-09-09T01:25:09;9.00;;;6.97;;
49834;SDS011;35729;52.090;13.162;2022-09-09T01:27:49;9.32;;;6.30;;
49834;SDS011;35729;52.090;13.162;2022-09-09T01:30:21;7.13;;;6.40;;
49834;SDS011;35729;52.090;13.162;2022-09-09T01:32:52;12.63;;;6.80;;
49834;SDS011;35729;52.090;13.162;2022-09-09T01:35:28;7.70;;;6.90;;
49834;SDS011;35729;52.090;13.162;2022-09-09T01:38:03;10.00;;;6.32;;
49834;SDS011;35729;52.090;13.162;2022-09-09T01:40:32;8.48;;;6.47;;
49834;SDS011;35729;52.090;13.162;2022-09-09T01:43:03;7.25;;;6.45;;
49834;SDS011;35729;52.090;13.162;2022-09-09T01:45:32;10.35;;;5.90;;
49834;SDS011;35729;52.090;13.162;2022-09-09T01:48:02;7.80;;;6.07;;
49834;SDS011;35729;52.090;13.162;2022-09-09T01:50:30;8.65;;;5.93;;
49834;SDS011;35729;52.090;13.162;2022-09-09T01:52:59;14.13;;;6.18;;
49834;SDS011;35729;52.090;13.162;2022-09-09T01:55:30;7.40;;;5.90;;
49834;SDS011;35729;52.090;13.162;2022-09-09T01:58:09;7.07;;;5.47;;
49834;SDS011;35729;52.090;13.162;2022-09-09T02:00:48;6.30;;;5.70;;
49834;SDS011;35729;52.090;13.162;2022-09-09T02:03:25;6.03;;;5.50;;
49834;SDS011;35729;52.090;13.162;2022-09-09T02:05:58;6.85;;;4.93;;
49834;SDS011;35729;52.090;13.162;2022-09-09T02:08:35;5.55;;;5.03;;
49834;SDS011;35729;52.090;13.162;2022-09-09T02:11:09;5.82;;;5.03;;
49834;SDS011;35729;52.090;13.162;2022-09-09T02:13:44;6.32;;;5.10;;
49834;SDS011;35729;52.090;13.162;2022-09-09T02:16:16;5.43;;;4.93;;
49834;SDS011;35729;52.090;13.162;2022-09-09T02:18:50;5.45;;;4.93;;
49834;SDS011;35729;52.090;13.162;2022-09-09T02:21:24;6.07;;;5.25;;
49834;SDS011;35729;52.090;13.162;2022-09-09T02:23:56;6.57;;;5.15;;
49834;SDS011;35729;52.090;13.162;2022-09-09T02:29:02;8.35;;;5.25;;
49834;SDS011;35729;52.090;13.162;2022-09-09T02:31:34;6.72;;;4.68;;
49834;SDS011;35729;52.090;13.162;2022-09-09T02:34:04;6.60;;;4.82;;
49834;SDS011;35729;52.090;13.162;2022-09-09T02:36:36;7.00;;;5.15;;
49834;SDS011;35729;52.090;13.162;2022-09-09T02:39:06;7.00;;;4.38;;
49834;SDS011;35729;52.090;13.162;2022-09-09T02:41:38;4.82;;;4.30;;
49834;SDS011;35729;52.090;13.162;2022-09-09T02:44:13;6.57;;;4.82;;
49834;SDS011;35729;52.090;13.162;2022-09-09T02:46:48;4.65;;;4.07;;
49834;SDS011;35729;52.090;13.162;2022-09-09T02:49:32;5.90;;;4.45;;
49834;SDS011;35729;52.090;13.162;2022-09-09T02:52:12;8.95;;;5.00;;
49834;SDS011;35729;52.090;13.162;2022-09-09T02:54:43;6.65;;;5.07;;
49834;SDS011;35729;52.090;13.162;2022-09-09T02:57:13;5.50;;;4.50;;
49834;SDS011;35729;52.090;13.162;2022-09-09T02:59:50;5.80;;;4.50;;
49834;SDS011;35729;52.090;13.162;2022-09-09T03:02:20;6.35;;;4.78;;
49834;SDS011;35729;52.090;13.162;2022-09-09T03:04:49;5.22;;;4.22;;
49834;SDS011;35729;52.090;13.162;2022-09-09T03:07:18;5.47;;;4.55;;
49834;SDS011;35729;52.090;13.162;2022-09-09T03:09:47;7.45;;;4.05;;
49834;SDS011;35729;52.090;13.162;2022-09-09T03:12:16;7.20;;;4.13;;
49834;SDS011;35729;52.090;13.162;2022-09-09T03:14:44;5.30;;;3.80;;
49834;SDS011;35729;52.090;13.162;2022-09-09T03:17:22;4.75;;;3.70;;
49834;SDS011;35729;52.090;13.162;2022-09-09T03:19:57;6.80;;;3.80;;
49834;SDS011;35729;52.090;13.162;2022-09-09T03:22:26;3.92;;;3.45;;
49834;SDS011;35729;52.090;13.162;2022-09-09T03:24:55;5.35;;;3.05;;
49834;SDS011;35729;52.090;13.162;2022-09-09T03:27:23;6.28;;;3.55;;
49834;SDS011;35729;52.090;13.162;2022-09-09T03:29:52;8.25;;;3.90;;
49834;SDS011;35729;52.090;13.162;2022-09-09T03:32:23;4.78;;;3.88;;
49834;SDS011;35729;52.090;13.162;2022-09-09T03:34:52;7.93;;;4.20;;
49834;SDS011;35729;52.090;13.162;2022-09-09T03:37:21;7.53;;;5.20;;
49834;SDS011;35729;52.090;13.162;2022-09-09T03:39:49;5.97;;;4.63;;
49834;SDS011;35729;52.090;13.162;2022-09-09T03:42:19;6.40;;;4.07;;
49834;SDS011;35729;52.090;13.162;2022-09-09T03:44:48;5.97;;;3.45;;
49834;SDS011;35729;52.090;13.162;2022-09-09T03:47:17;5.60;;;3.33;;
49834;SDS011;35729;52.090;13.162;2022-09-09T03:49:49;6.05;;;4.05;;
49834;SDS011;35729;52.090;13.162;2022-09-09T03:52:17;4.45;;;4.05;;
49834;SDS011;35729;52.090;13.162;2022-09-09T03:54:46;6.07;;;3.70;;
49834;SDS011;35729;52.090;13.162;2022-09-09T03:57:15;4.53;;;3.92;;
49834;SDS011;35729;52.090;13.162;2022-09-09T03:59:43;5.20;;;3.67;;
49834;SDS011;35729;52.090;13.162;2022-09-09T04:02:12;7.97;;;3.78;;
49834;SDS011;35729;52.090;13.162;2022-09-09T04:04:40;3.63;;;3.10;;
49834;SDS011;35729;52.090;13.162;2022-09-09T04:07:11;3.92;;;3.28;;
49834;SDS011;35729;52.090;13.162;2022-09-09T04:09:40;7.10;;;3.60;;
49834;SDS011;35729;52.090;13.162;2022-09-09T04:12:09;5.68;;;3.65;;
49834;SDS011;35729;52.090;13.162;2022-09-09T04:14:38;5.38;;;4.20;;
49834;SDS011;35729;52.090;13.162;2022-09-09T04:17:06;5.88;;;4.05;;
49834;SDS011;35729;52.090;13.162;2022-09-09T04:19:35;6.15;;;4.20;;
49834;SDS011;35729;52.090;13.162;2022-09-09T04:22:03;6.68;;;3.90;;
49834;SDS011;35729;52.090;13.162;2022-09-09T04:24:34;6.72;;;3.90;;
49834;SDS011;35729;52.090;13.162;2022-09-09T04:27:03;7.03;;;3.53;;
49834;SDS011;35729;52.090;13.162;2022-09-09T04:29:31;6.80;;;4.05;;
49834;SDS011;35729;52.090;13.162;2022-09-09T04:32:00;5.55;;;4.35;;
49834;SDS011;35729;52.090;13.162;2022-09-09T04:34:29;5.15;;;4.00;;
49834;SDS011;35729;52.090;13.162;2022-09-09T04:36:58;4.53;;;3.33;;
49834;SDS011;35729;52.090;13.162;2022-09-09T04:39:26;6.30;;;3.30;;
49834;SDS011;35729;52.090;13.162;2022-09-09T04:41:57;5.25;;;3.40;;
49834;SDS011;35729;52.090;13.162;2022-09-09T04:44:27;8.95;;;3.67;;
49834;SDS011;35729;52.090;13.162;2022-09-09T04:46:55;6.28;;;3.50;;
49834;SDS011;35729;52.090;13.162;2022-09-09T04:49:24;6.80;;;3.53;;
49834;SDS011;35729;52.090;13.162;2022-09-09T04:51:52;4.65;;;3.40;;
49834;SDS011;35729;52.090;13.162;2022-09-09T04:54:21;4.75;;;3.40;;
49834;SDS011;35729;52.090;13.162;2022-09-09T04:56:50;3.60;;;3.28;;
49834;SDS011;35729;52.090;13.162;2022-09-09T04:59:22;8.00;;;3.72;;
49834;SDS011;35729;52.090;13.162;2022-09-09T05:01:51;5.93;;;3.78;;
49834;SDS011;35729;52.090;13.162;2022-09-09T05:04:20;9.07;;;4.28;;
49834;SDS011;35729;52.090;13.162;2022-09-09T05:06:49;7.05;;;4.15;;
49834;SDS011;35729;52.090;13.162;2022-09-09T05:09:17;6.72;;;3.72;;
49834;SDS011;35729;52.090;13.162;2022-09-09T05:11:46;5.53;;;3.58;;
49834;SDS011;35729;52.090;13.162;2022-09-09T05:14:14;7.13;;;3.60;;
49834;SDS011;35729;52.090;13.162;2022-09-09T05:16:46;7.45;;;3.92;;
49834;SDS011;35729;52.090;13.162;2022-09-09T05:19:15;6.47;;;3.70;;
49834;SDS011;35729;52.090;13.162;2022-09-09T05:21:45;4.35;;;3.60;;
49834;SDS011;35729;52.090;13.162;2022-09-09T05:24:13;5.50;;;3.50;;
49834;SDS011;35729;52.090;13.162;2022-09-09T05:26:42;7.32;;;4.25;;
49834;SDS011;35729;52.090;13.162;2022-09-09T05:29:11;7.10;;;3.20;;
49834;SDS011;35729;52.090;13.162;2022-09-09T05:31:39;6.47;;;3.50;;
49834;SDS011;35729;52.090;13.162;2022-09-09T05:34:10;4.78;;;3.30;;
49834;SDS011;35729;52.090;13.162;2022-09-09T05:36:39;7.85;;;3.80;;
49834;SDS011;35729;52.090;13.162;2022-09-09T05:39:08;5.05;;;3.60;;
49834;SDS011;35729;52.090;13.162;2022-09-09T05:41:37;5.03;;;3.17;;
49834;SDS011;35729;52.090;13.162;2022-09-09T05:44:05;6.75;;;3.30;;
49834;SDS011;35729;52.090;13.162;2022-09-09T05:46:34;5.78;;;3.20;;
49834;SDS011;35729;52.090;13.162;2022-09-09T05:49:02;5.18;;;3.22;;
49834;SDS011;35729;52.090;13.162;2022-09-09T05:51:33;4.70;;;2.92;;
49834;SDS011;35729;52.090;13.162;2022-09-09T05:54:02;7.85;;;3.45;;
49834;SDS011;35729;52.090;13.162;2022-09-09T05:56:31;4.40;;;3.20;;
49834;SDS011;35729;52.090;13.162;2022-09-09T05:59:00;4.55;;;2.97;;
49834;SDS011;35729;52.090;13.162;2022-09-09T06:01:30;4.32;;;3.05;;
49834;SDS011;35729;52.090;13.162;2022-09-09T06:04:00;8.48;;;3.67;;
49834;SDS011;35729;52.090;13.162;2022-09-09T06:06:30;5.35;;;3.10;;
49834;SDS011;35729;52.090;13.162;2022-09-09T06:09:05;6.05;;;3.22;;
49834;SDS011;35729;52.090;13.162;2022-09-09T06:11:36;5.18;;;3.03;;
49834;SDS011;35729;52.090;13.162;2022-09-09T06:14:06;5.50;;;2.45;;
49834;SDS011;35729;52.090;13.162;2022-09-09T06:16:35;6.25;;;2.90;;
49834;SDS011;35729;52.090;13.162;2022-09-09T06:19:03;6.70;;;2.80;;
49834;SDS011;35729;52.090;13.162;2022-09-09T06:21:35;6.43;;;2.65;;
49834;SDS011;35729;52.090;13.162;2022-09-09T06:24:05;5.65;;;3.28;;
49834;SDS011;35729;52.090;13.162;2022-09-09T06:26:36;5.80;;;2.85;;
49834;SDS011;35729;52.090;13.162;2022-09-09T06:29:06;5.00;;;2.78;;
49834;SDS011;35729;52.090;13.162;2022-09-09T06:31:35;5.10;;;2.45;;
49834;SDS011;35729;52.090;13.162;2022-09-09T06:34:05;6.78;;;4.13;;
49834;SDS011;35729;52.090;13.162;2022-09-09T06:36:38;6.63;;;2.67;;
49834;SDS011;35729;52.090;13.162;2022-09-09T06:39:07;4.43;;;2.75;;
49834;SDS011;35729;52.090;13.162;2022-09-09T06:41:36;7.07;;;3.22;;
49834;SDS011;35729;52.090;13.162;2022-09-09T06:44:06;9.00;;;4.65;;
49834;SDS011;35729;52.090;13.162;2022-09-09T06:46:36;9.65;;;2.63;;
49834;SDS011;35729;52.090;13.162;2022-09-09T06:49:05;4.65;;;2.70;;
49834;SDS011;35729;52.090;13.162;2022-09-09T06:51:34;4.85;;;2.35;;
49834;SDS011;35729;52.090;13.162;2022-09-09T06:54:07;5.30;;;3.05;;
49834;SDS011;35729;52.090;13.162;2022-09-09T06:56:37;5.90;;;3.03;;
49834;SDS011;35729;52.090;13.162;2022-09-09T06:59:08;5.47;;;3.33;;
49834;SDS011;35729;52.090;13.162;2022-09-09T07:01:37;6.15;;;2.78;;
49834;SDS011;35729;52.090;13.162;2022-09-09T07:04:09;4.63;;;2.67;;
49834;SDS011;35729;52.090;13.162;2022-09-09T07:06:42;4.75;;;2.58;;
49834;SDS011;35729;52.090;13.162;2022-09-09T07:09:11;2.97;;;2.22;;
49834;SDS011;35729;52.090;13.162;2022-09-09T07:11:42;3.67;;;2.72;;
49834;SDS011;35729;52.090;13.162;2022-09-09T07:14:12;5.97;;;2.70;;
49834;SDS011;35729;52.090;13.162;2022-09-09T07:16:42;5.05;;;2.60;;
49834;SDS011;35729;52.090;13.162;2022-09-09T07:19:11;3.70;;;2.55;;
49834;SDS011;35729;52.090;13.162;2022-09-09T07:21:43;5.13;;;2.25;;
49834;SDS011;35729;52.090;13.162;2022-09-09T07:24:12;2.33;;;1.90;;
49834;SDS011;35729;52.090;13.162;2022-09-09T07:26:40;5.25;;;2.30;;
49834;SDS011;35729;52.090;13.162;2022-09-09T07:29:09;7.47;;;2.42;;
49834;SDS011;35729;52.090;13.162;2022-09-09T07:31:39;3.88;;;2.00;;
49834;SDS011;35729;52.090;13.162;2022-09-09T07:34:08;5.57;;;2.53;;
49834;SDS011;35729;52.090;13.162;2022-09-09T07:36:37;4.32;;;2.00;;
49834;SDS011;35729;52.090;13.162;2022-09-09T07:39:10;6.20;;;3.05;;
49834;SDS011;35729;52.090;13.162;2022-09-09T07:41:42;6.45;;;1.95;;
49834;SDS011;35729;52.090;13.162;2022-09-09T07:44:14;4.95;;;2.88;;
49834;SDS011;35729;52.090;13.162;2022-09-09T07:46:44;4.95;;;2.45;;
49834;SDS011;35729;52.090;13.162;2022-09-09T07:49:13;4.80;;;2.13;;
49834;SDS011;35729;52.090;13.162;2022-09-09T07:51:43;5.38;;;1.77;;
49834;SDS011;35729;52.090;13.162;2022-09-09T07:54:17;3.00;;;1.60;;
49834;SDS011;35729;52.090;13.162;2022-09-09T07:56:48;3.13;;;1.80;;
49834;SDS011;35729;52.090;13.162;2022-09-09T07:59:18;3.92;;;2.20;;
49834;SDS011;35729;52.090;13.162;2022-09-09T08:01:48;2.03;;;1.35;;
49834;SDS011;35729;52.090;13.162;2022-09-09T08:04:19;3.38;;;1.80;;
49834;SDS011;35729;52.090;13.162;2022-09-09T08:06:51;3.55;;;2.40;;
49834;SDS011;35729;52.090;13.162;2022-09-09T08:09:23;5.82;;;3.00;;
49834;SDS011;35729;52.090;13.162;2022-09-09T08:11:53;3.47;;;1.50;;
49834;SDS011;35729;52.090;13.162;2022-09-09T08:14:23;5.53;;;2.17;;
49834;SDS011;35729;52.090;13.162;2022-09-09T08:16:52;4.13;;;1.55;;
49834;SDS011;35729;52.090;13.162;2022-09-09T08:19:22;4.28;;;1.50;;
49834;SDS011;35729;52.090;13.162;2022-09-09T08:21:50;5.68;;;2.80;;
49834;SDS011;35729;52.090;13.162;2022-09-09T08:24:28;2.63;;;1.20;;
49834;SDS011;35729;52.090;13.162;2022-09-09T08:26:57;2.75;;;1.50;;
49834;SDS011;35729;52.090;13.162;2022-09-09T08:29:26;5.00;;;1.73;;
49834;SDS011;35729;52.090;13.162;2022-09-09T08:31:56;4.20;;;1.60;;
49834;SDS011;35729;52.090;13.162;2022-09-09T08:34:26;3.35;;;1.33;;
49834;SDS011;35729;52.090;13.162;2022-09-09T08:36:55;2.80;;;0.95;;
49834;SDS011;35729;52.090;13.162;2022-09-09T08:39:24;2.35;;;1.30;;
49834;SDS011;35729;52.090;13.162;2022-09-09T08:42:04;5.97;;;1.48;;
49834;SDS011;35729;52.090;13.162;2022-09-09T08:50:52;3.33;;;1.27;;
49834;SDS011;35729;52.090;13.162;2022-09-09T08:53:27;3.28;;;1.20;;
49834;SDS011;35729;52.090;13.162;2022-09-09T08:55:58;3.28;;;1.27;;
49834;SDS011;35729;52.090;13.162;2022-09-09T08:58:33;3.88;;;1.50;;
49834;SDS011;35729;52.090;13.162;2022-09-09T09:01:09;3.70;;;1.20;;
49834;SDS011;35729;52.090;13.162;2022-09-09T09:04:04;2.55;;;1.15;;
49834;SDS011;35729;52.090;13.162;2022-09-09T09:06:43;2.78;;;1.00;;
49834;SDS011;35729;52.090;13.162;2022-09-09T09:09:21;5.28;;;1.50;;
49834;SDS011;35729;52.090;13.162;2022-09-09T09:11:56;1.73;;;1.00;;
49834;SDS011;35729;52.090;13.162;2022-09-09T09:14:30;2.42;;;1.08;;
49834;SDS011;35729;52.090;13.162;2022-09-09T09:17:10;4.50;;;1.50;;
49834;SDS011;35729;52.090;13.162;2022-09-09T09:19:42;4.47;;;1.05;;
49834;SDS011;35729;52.090;13.162;2022-09-09T09:22:14;4.68;;;1.23;;
49834;SDS011;35729;52.090;13.162;2022-09-09T09:24:49;4.00;;;1.42;;
49834;SDS011;35729;52.090;13.162;2022-09-09T09:27:21;4.47;;;1.30;;
49834;SDS011;35729;52.090;13.162;2022-09-09T09:30:04;4.55;;;1.35;;
49834;SDS011;35729;52.090;13.162;2022-09-09T09:32:43;3.35;;;0.95;;
49834;SDS011;35729;52.090;13.162;2022-09-09T09:35:21;6.35;;;1.33;;
49834;SDS011;35729;52.090;13.162;2022-09-09T09:37:50;4.30;;;2.10;;
49834;SDS011;35729;52.090;13.162;2022-09-09T09:40:19;3.97;;;1.17;;
49834;SDS011;35729;52.090;13.162;2022-09-09T09:42:51;3.25;;;1.50;;
49834;SDS011;35729;52.090;13.162;2022-09-09T09:45:26;6.22;;;1.30;;
49834;SDS011;35729;52.090;13.162;2022-09-09T09:48:00;4.25;;;1.15;;
49834;SDS011;35729;52.090;13.162;2022-09-09T09:50:31;3.88;;;1.98;;
49834;SDS011;35729;52.090;13.162;2022-09-09T09:53:02;1.08;;;0.68;;
49834;SDS011;35729;52.090;13.162;2022-09-09T09:55:33;2.65;;;0.70;;
49834;SDS011;35729;52.090;13.162;2022-09-09T09:58:03;2.72;;;1.13;;
49834;SDS011;35729;52.090;13.162;2022-09-09T10:00:36;1.52;;;1.00;;
49834;SDS011;35729;52.090;13.162;2022-09-09T10:03:24;2.17;;;0.82;;
49834;SDS011;35729;52.090;13.162;2022-09-09T10:05:54;3.10;;;1.10;;
49834;SDS011;35729;52.090;13.162;2022-09-09T10:08:24;3.05;;;0.90;;
49834;SDS011;35729;52.090;13.162;2022-09-09T10:10:59;2.55;;;0.77;;
49834;SDS011;35729;52.090;13.162;2022-09-09T10:13:37;4.45;;;1.35;;
49834;SDS011;35729;52.090;13.162;2022-09-09T10:16:23;4.47;;;1.30;;
49834;SDS011;35729;52.090;13.162;2022-09-09T10:19:01;4.53;;;1.00;;
49834;SDS011;35729;52.090;13.162;2022-09-09T10:21:38;3.55;;;0.73;;
49834;SDS011;35729;52.090;13.162;2022-09-09T10:24:31;3.20;;;0.55;;
49834;SDS011;35729;52.090;13.162;2022-09-09T10:27:19;3.75;;;0.82;;
49834;SDS011;35729;52.090;13.162;2022-09-09T10:30:06;2.53;;;0.80;;
49834;SDS011;35729;52.090;13.162;2022-09-09T10:32:48;4.28;;;0.90;;
49834;SDS011;35729;52.090;13.162;2022-09-09T10:35:30;2.33;;;0.73;;
49834;SDS011;35729;52.090;13.162;2022-09-09T10:38:12;2.63;;;0.73;;
49834;SDS011;35729;52.090;13.162;2022-09-09T10:40:46;1.70;;;0.90;;
49834;SDS011;35729;52.090;13.162;2022-09-09T10:43:32;3.08;;;0.82;;
49834;SDS011;35729;52.090;13.162;2022-09-09T10:46:23;4.03;;;0.98;;
49834;SDS011;35729;52.090;13.162;2022-09-09T10:49:08;2.63;;;0.70;;
49834;SDS011;35729;52.090;13.162;2022-09-09T10:51:45;2.70;;;0.70;;
49834;SDS011;35729;52.090;13.162;2022-09-09T10:54:23;6.82;;;1.30;;
49834;SDS011;35729;52.090;13.162;2022-09-09T10:57:02;4.03;;;2.42;;
49834;SDS011;35729;52.090;13.162;2022-09-09T10:59:40;2.85;;;0.80;;
49834;SDS011;35729;52.090;13.162;2022-09-09T11:02:13;3.55;;;1.05;;
49834;SDS011;35729;52.090;13.162;2022-09-09T11:04:51;3.60;;;1.13;;
49834;SDS011;35729;52.090;13.162;2022-09-09T11:07:27;2.30;;;0.60;;
49834;SDS011;35729;52.090;13.162;2022-09-09T11:10:02;2.47;;;0.77;;
49834;SDS011;35729;52.090;13.162;2022-09-09T11:12:35;5.32;;;0.98;;
49834;SDS011;35729;52.090;13.162;2022-09-09T11:15:12;2.65;;;1.00;;
49834;SDS011;35729;52.090;13.162;2022-09-09T11:17:45;3.90;;;1.05;;
49834;SDS011;35729;52.090;13.162;2022-09-09T11:20:22;4.13;;;0.95;;
49834;SDS011;35729;52.090;13.162;2022-09-09T11:22:53;2.42;;;0.80;;
49834;SDS011;35729;52.090;13.162;2022-09-09T11:25:28;2.55;;;0.75;;
49834;SDS011;35729;52.090;13.162;2022-09-09T11:28:07;4.13;;;1.00;;
49834;SDS011;35729;52.090;13.162;2022-09-09T11:30:52;2.72;;;0.73;;
49834;SDS011;35729;52.090;13.162;2022-09-09T11:33:34;1.42;;;0.80;;
49834;SDS011;35729;52.090;13.162;2022-09-09T11:36:36;3.97;;;0.95;;
49834;SDS011;35729;52.090;13.162;2022-09-09T11:39:24;4.38;;;0.90;;
49834;SDS011;35729;52.090;13.162;2022-09-09T11:42:15;1.83;;;0.73;;
49834;SDS011;35729;52.090;13.162;2022-09-09T11:44:46;2.92;;;0.70;;
49834;SDS011;35729;52.090;13.162;2022-09-09T11:47:22;5.20;;;0.70;;
49834;SDS011;35729;52.090;13.162;2022-09-09T11:49:54;4.55;;;0.82;;
49834;SDS011;35729;52.090;13.162;2022-09-09T11:52:41;4.75;;;0.75;;
49834;SDS011;35729;52.090;13.162;2022-09-09T11:55:12;2.38;;;0.70;;
49834;SDS011;35729;52.090;13.162;2022-09-09T11:57:58;8.00;;;1.23;;
49834;SDS011;35729;52.090;13.162;2022-09-09T12:00:30;2.67;;;0.60;;
49834;SDS011;35729;52.090;13.162;2022-09-09T12:03:02;3.78;;;0.70;;
49834;SDS011;35729;52.090;13.162;2022-09-09T12:05:37;1.80;;;0.45;;
49834;SDS011;35729;52.090;13.162;2022-09-09T12:08:16;2.05;;;0.63;;
49834;SDS011;35729;52.090;13.162;2022-09-09T12:10:57;2.42;;;0.50;;
49834;SDS011;35729;52.090;13.162;2022-09-09T12:13:28;3.67;;;0.63;;
49834;SDS011;35729;52.090;13.162;2022-09-09T12:15:57;3.40;;;0.77;;
49834;SDS011;35729;52.090;13.162;2022-09-09T12:18:31;3.15;;;0.60;;
49834;SDS011;35729;52.090;13.162;2022-09-09T12:21:03;3.17;;;0.82;;
49834;SDS011;35729;52.090;13.162;2022-09-09T12:23:46;2.42;;;0.60;;
49834;SDS011;35729;52.090;13.162;2022-09-09T12:26:23;3.25;;;0.90;;
49834;SDS011;35729;52.090;13.162;2022-09-09T12:29:01;3.65;;;0.60;;
49834;SDS011;35729;52.090;13.162;2022-09-09T12:31:41;3.60;;;1.17;;
49834;SDS011;35729;52.090;13.162;2022-09-09T12:34:15;2.97;;;1.08;;
49834;SDS011;35729;52.090;13.162;2022-09-09T12:36:51;3.20;;;0.77;;
49834;SDS011;35729;52.090;13.162;2022-09-09T12:39:29;2.35;;;0.60;;
49834;SDS011;35729;52.090;13.162;2022-09-09T12:42:02;2.33;;;0.73;;
49834;SDS011;35729;52.090;13.162;2022-09-09T12:44:31;2.92;;;0.80;;
49834;SDS011;35729;52.090;13.162;2022-09-09T12:47:00;2.83;;;0.63;;
49834;SDS011;35729;52.090;13.162;2022-09-09T12:49:32;3.22;;;0.90;;
49834;SDS011;35729;52.090;13.162;2022-09-09T12:52:04;2.45;;;0.70;;
49834;SDS011;35729;52.090;13.162;2022-09-09T12:54:42;3.72;;;0.82;;
49834;SDS011;35729;52.090;13.162;2022-09-09T12:57:16;2.53;;;0.68;;
49834;SDS011;35729;52.090;13.162;2022-09-09T12:59:44;3.58;;;0.73;;
49834;SDS011;35729;52.090;13.162;2022-09-09T13:02:17;2.38;;;0.70;;
49834;SDS011;35729;52.090;13.162;2022-09-09T13:04:49;3.65;;;0.90;;
49834;SDS011;35729;52.090;13.162;2022-09-09T13:07:19;3.30;;;0.52;;
49834;SDS011;35729;52.090;13.162;2022-09-09T13:09:53;1.65;;;0.55;;
49834;SDS011;35729;52.090;13.162;2022-09-09T13:12:22;2.90;;;0.98;;
49834;SDS011;35729;52.090;13.162;2022-09-09T13:14:51;2.92;;;1.60;;
49834;SDS011;35729;52.090;13.162;2022-09-09T13:17:22;3.15;;;1.02;;
49834;SDS011;35729;52.090;13.162;2022-09-09T13:19:54;3.17;;;1.45;;
49834;SDS011;35729;52.090;13.162;2022-09-09T13:22:26;4.72;;;1.10;;
49834;SDS011;35729;52.090;13.162;2022-09-09T13:25:06;3.58;;;1.23;;
49834;SDS011;35729;52.090;13.162;2022-09-09T13:27:54;3.88;;;1.48;;
49834;SDS011;35729;52.090;13.162;2022-09-09T13:30:25;2.20;;;0.55;;
49834;SDS011;35729;52.090;13.162;2022-09-09T13:33:01;4.88;;;0.70;;
49834;SDS011;35729;52.090;13.162;2022-09-09T13:35:34;1.88;;;0.70;;
49834;SDS011;35729;52.090;13.162;2022-09-09T13:38:14;2.35;;;0.95;;
49834;SDS011;35729;52.090;13.162;2022-09-09T13:40:54;3.33;;;1.10;;
49834;SDS011;35729;52.090;13.162;2022-09-09T13:43:26;3.22;;;1.30;;
49834;SDS011;35729;52.090;13.162;2022-09-09T13:45:56;2.85;;;0.80;;
49834;SDS011;35729;52.090;13.162;2022-09-09T13:48:26;3.97;;;0.90;;
49834;SDS011;35729;52.090;13.162;2022-09-09T13:50:56;3.00;;;0.80;;
49834;SDS011;35729;52.090;13.162;2022-09-09T13:53:26;3.03;;;0.98;;
49834;SDS011;35729;52.090;13.162;2022-09-09T13:55:58;3.95;;;1.02;;
49834;SDS011;35729;52.090;13.162;2022-09-09T13:58:27;3.63;;;0.85;;
49834;SDS011;35729;52.090;13.162;2022-09-09T14:00:57;6.30;;;1.05;;
49834;SDS011;35729;52.090;13.162;2022-09-09T14:03:26;3.60;;;0.77;;
49834;SDS011;35729;52.090;13.162;2022-09-09T14:05:55;2.97;;;0.85;;
49834;SDS011;35729;52.090;13.162;2022-09-09T14:08:24;2.78;;;1.08;;
49834;SDS011;35729;52.090;13.162;2022-09-09T14:11:04;3.25;;;1.50;;
49834;SDS011;35729;52.090;13.162;2022-09-09T14:13:33;7.28;;;1.50;;
49834;SDS011;35729;52.090;13.162;2022-09-09T14:16:02;3.50;;;0.80;;
49834;SDS011;35729;52.090;13.162;2022-09-09T14:18:31;2.47;;;0.80;;
49834;SDS011;35729;52.090;13.162;2022-09-09T14:20:59;2.55;;;0.70;;
49834;SDS011;35729;52.090;13.162;2022-09-09T14:23:34;2.78;;;0.80;;
49834;SDS011;35729;52.090;13.162;2022-09-09T14:26:06;4.03;;;1.02;;
49834;SDS011;35729;52.090;13.162;2022-09-09T14:28:35;4.45;;;0.93;;
49834;SDS011;35729;52.090;13.162;2022-09-09T14:31:05;4.63;;;1.00;;
49834;SDS011;35729;52.090;13.162;2022-09-09T14:33:35;3.28;;;0.80;;
49834;SDS011;35729;52.090;13.162;2022-09-09T14:36:04;2.97;;;1.10;;
49834;SDS011;35729;52.090;13.162;2022-09-09T14:38:34;3.53;;;1.73;;
49834;SDS011;35729;52.090;13.162;2022-09-09T14:41:10;3.33;;;1.02;;
49834;SDS011;35729;52.090;13.162;2022-09-09T14:43:40;6.13;;;1.65;;
49834;SDS011;35729;52.090;13.162;2022-09-09T14:46:09;3.78;;;0.70;;
49834;SDS011;35729;52.090;13.162;2022-09-09T14:48:39;2.90;;;0.98;;
49834;SDS011;35729;52.090;13.162;2022-09-09T14:51:09;4.20;;;0.88;;
49834;SDS011;35729;52.090;13.162;2022-09-09T14:53:40;3.05;;;1.00;;
49834;SDS011;35729;52.090;13.162;2022-09-09T14:56:13;3.55;;;0.65;;
49834;SDS011;35729;52.090;13.162;2022-09-09T14:58:44;4.30;;;0.70;;
49834;SDS011;35729;52.090;13.162;2022-09-09T15:01:14;3.33;;;0.77;;
49834;SDS011;35729;52.090;13.162;2022-09-09T15:03:48;3.00;;;0.68;;
49834;SDS011;35729;52.090;13.162;2022-09-09T15:06:18;2.92;;;1.00;;
49834;SDS011;35729;52.090;13.162;2022-09-09T15:08:49;4.75;;;0.70;;
49834;SDS011;35729;52.090;13.162;2022-09-09T15:11:21;2.25;;;0.77;;
49834;SDS011;35729;52.090;13.162;2022-09-09T15:13:57;3.15;;;0.70;;
49834;SDS011;35729;52.090;13.162;2022-09-09T15:16:26;2.38;;;0.60;;
49834;SDS011;35729;52.090;13.162;2022-09-09T15:18:57;2.92;;;0.85;;